sensor_id;sensor_type;location;lat;lon;timestamp;P1;durP1;ratioP1;P2;durP2;ratioP2
73859;SDS011;62197;51.632;13.700;2023-07-31T00:01:22;8.43;;;4.32;;
73859;SDS011;62197;51.632;13.700;2023-07-31T00:03:47;10.98;;;4.10;;
73859;SDS011;62197;51.632;13.700;2023-07-31T00:06:12;8.75;;;5.10;;
73859;SDS011;62197;51.632;13.700;2023-07-31T00:08:38;6.45;;;4.28;;
73859;SDS011;62197;51.632;13.700;2023-07-31T00:11:03;11.40;;;4.38;;
73859;SDS011;62197;51.632;13.700;2023-07-31T00:13:28;11.30;;;4.90;;
73859;SDS011;62197;51.632;13.700;2023-07-31T00:15:54;8.80;;;3.88;;
73859;SDS011;62197;51.632;13.700;2023-07-31T00:18:19;8.40;;;4.30;;
73859;SDS011;62197;51.632;13.700;2023-07-31T00:20:44;10.80;;;4.65;;
73859;SDS011;62197;51.632;13.700;2023-07-31T00:23:10;7.20;;;4.10;;
73859;SDS011;62197;51.632;13.700;2023-07-31T00:25:35;8.13;;;4.07;;
73859;SDS011;62197;51.632;13.700;2023-07-31T00:28:00;10.23;;;4.82;;
73859;SDS011;62197;51.632;13.700;2023-07-31T00:30:26;10.45;;;4.82;;
73859;SDS011;62197;51.632;13.700;2023-07-31T00:32:52;9.27;;;4.82;;
73859;SDS011;62197;51.632;13.700;2023-07-31T00:35:17;8.15;;;4.60;;
73859;SDS011;62197;51.632;13.700;2023-07-31T00:37:42;10.43;;;4.28;;
73859;SDS011;62197;51.632;13.700;2023-07-31T00:40:08;11.23;;;4.00;;
73859;SDS011;62197;51.632;13.700;2023-07-31T00:42:33;7.57;;;3.88;;
73859;SDS011;62197;51.632;13.700;2023-07-31T00:44:59;7.63;;;4.15;;
73859;SDS011;62197;51.632;13.700;2023-07-31T00:47:24;5.32;;;3.83;;
73859;SDS011;62197;51.632;13.700;2023-07-31T00:49:50;7.10;;;3.97;;
73859;SDS011;62197;51.632;13.700;2023-07-31T00:52:16;7.32;;;3.92;;
73859;SDS011;62197;51.632;13.700;2023-07-31T00:54:41;8.35;;;4.40;;
73859;SDS011;62197;51.632;13.700;2023-07-31T00:57:07;11.07;;;4.53;;
73859;SDS011;62197;51.632;13.700;2023-07-31T00:59:33;10.52;;;4.13;;
73859;SDS011;62197;51.632;13.700;2023-07-31T01:01:58;9.07;;;4.35;;
73859;SDS011;62197;51.632;13.700;2023-07-31T01:04:24;11.23;;;4.03;;
73859;SDS011;62197;51.632;13.700;2023-07-31T01:07:02;8.20;;;4.18;;
73859;SDS011;62197;51.632;13.700;2023-07-31T01:12:27;11.05;;;3.63;;
73859;SDS011;62197;51.632;13.700;2023-07-31T01:15:07;8.82;;;4.38;;
73859;SDS011;62197;51.632;13.700;2023-07-31T01:17:37;6.38;;;3.17;;
73859;SDS011;62197;51.632;13.700;2023-07-31T01:20:03;5.10;;;2.70;;
73859;SDS011;62197;51.632;13.700;2023-07-31T01:28:14;10.43;;;2.65;;
73859;SDS011;62197;51.632;13.700;2023-07-31T01:30:46;3.75;;;2.58;;
73859;SDS011;62197;51.632;13.700;2023-07-31T01:33:13;4.93;;;2.40;;
73859;SDS011;62197;51.632;13.700;2023-07-31T01:35:43;10.48;;;2.65;;
73859;SDS011;62197;51.632;13.700;2023-07-31T01:38:09;5.20;;;2.80;;
73859;SDS011;62197;51.632;13.700;2023-07-31T01:40:34;5.28;;;3.13;;
73859;SDS011;62197;51.632;13.700;2023-07-31T01:42:59;7.18;;;2.50;;
73859;SDS011;62197;51.632;13.700;2023-07-31T01:45:25;10.32;;;2.42;;
73859;SDS011;62197;51.632;13.700;2023-07-31T01:47:50;5.22;;;2.70;;
73859;SDS011;62197;51.632;13.700;2023-07-31T01:50:16;4.85;;;2.50;;
73859;SDS011;62197;51.632;13.700;2023-07-31T01:52:41;7.32;;;2.20;;
73859;SDS011;62197;51.632;13.700;2023-07-31T01:55:06;5.03;;;2.15;;
73859;SDS011;62197;51.632;13.700;2023-07-31T01:57:32;6.50;;;2.50;;
73859;SDS011;62197;51.632;13.700;2023-07-31T01:59:57;6.78;;;2.13;;
73859;SDS011;62197;51.632;13.700;2023-07-31T02:02:22;3.63;;;2.08;;
73859;SDS011;62197;51.632;13.700;2023-07-31T02:04:48;7.13;;;2.60;;
73859;SDS011;62197;51.632;13.700;2023-07-31T02:07:13;4.60;;;2.20;;
73859;SDS011;62197;51.632;13.700;2023-07-31T02:09:38;9.98;;;2.78;;
73859;SDS011;62197;51.632;13.700;2023-07-31T02:12:04;4.70;;;2.10;;
73859;SDS011;62197;51.632;13.700;2023-07-31T02:14:29;6.22;;;1.85;;
73859;SDS011;62197;51.632;13.700;2023-07-31T02:16:55;4.05;;;2.13;;
73859;SDS011;62197;51.632;13.700;2023-07-31T02:19:20;5.20;;;2.20;;
73859;SDS011;62197;51.632;13.700;2023-07-31T02:21:45;6.05;;;2.00;;
73859;SDS011;62197;51.632;13.700;2023-07-31T02:24:11;6.32;;;1.80;;
73859;SDS011;62197;51.632;13.700;2023-07-31T02:26:36;5.63;;;2.08;;
73859;SDS011;62197;51.632;13.700;2023-07-31T02:29:01;3.97;;;2.30;;
73859;SDS011;62197;51.632;13.700;2023-07-31T02:31:27;5.65;;;2.65;;
73859;SDS011;62197;51.632;13.700;2023-07-31T02:33:52;5.80;;;2.22;;
73859;SDS011;62197;51.632;13.700;2023-07-31T02:36:17;4.15;;;2.22;;
73859;SDS011;62197;51.632;13.700;2023-07-31T02:38:43;5.32;;;2.45;;
73859;SDS011;62197;51.632;13.700;2023-07-31T02:41:08;7.05;;;2.30;;
73859;SDS011;62197;51.632;13.700;2023-07-31T02:43:33;5.00;;;2.20;;
73859;SDS011;62197;51.632;13.700;2023-07-31T02:45:59;8.77;;;2.17;;
73859;SDS011;62197;51.632;13.700;2023-07-31T02:48:24;7.70;;;2.03;;
73859;SDS011;62197;51.632;13.700;2023-07-31T02:50:49;6.00;;;2.72;;
73859;SDS011;62197;51.632;13.700;2023-07-31T02:53:15;5.22;;;2.40;;
73859;SDS011;62197;51.632;13.700;2023-07-31T02:55:40;4.97;;;1.92;;
73859;SDS011;62197;51.632;13.700;2023-07-31T02:58:06;5.38;;;2.22;;
73859;SDS011;62197;51.632;13.700;2023-07-31T03:00:31;5.78;;;2.08;;
73859;SDS011;62197;51.632;13.700;2023-07-31T03:02:56;7.25;;;2.40;;
73859;SDS011;62197;51.632;13.700;2023-07-31T03:05:22;4.78;;;1.70;;
73859;SDS011;62197;51.632;13.700;2023-07-31T03:07:47;6.03;;;1.80;;
73859;SDS011;62197;51.632;13.700;2023-07-31T03:10:12;4.28;;;2.35;;
73859;SDS011;62197;51.632;13.700;2023-07-31T03:12:38;6.75;;;1.83;;
73859;SDS011;62197;51.632;13.700;2023-07-31T03:15:03;4.88;;;2.40;;
73859;SDS011;62197;51.632;13.700;2023-07-31T03:17:29;3.75;;;1.73;;
73859;SDS011;62197;51.632;13.700;2023-07-31T03:19:54;4.25;;;2.10;;
73859;SDS011;62197;51.632;13.700;2023-07-31T03:22:19;4.22;;;1.95;;
73859;SDS011;62197;51.632;13.700;2023-07-31T03:24:45;5.63;;;1.75;;
73859;SDS011;62197;51.632;13.700;2023-07-31T03:27:10;2.83;;;1.58;;
73859;SDS011;62197;51.632;13.700;2023-07-31T03:29:35;8.45;;;2.45;;
73859;SDS011;62197;51.632;13.700;2023-07-31T03:32:01;7.65;;;2.20;;
73859;SDS011;62197;51.632;13.700;2023-07-31T03:34:26;3.90;;;1.80;;
73859;SDS011;62197;51.632;13.700;2023-07-31T03:36:51;4.18;;;1.70;;
73859;SDS011;62197;51.632;13.700;2023-07-31T03:39:17;3.22;;;1.30;;
73859;SDS011;62197;51.632;13.700;2023-07-31T03:41:42;4.60;;;2.00;;
73859;SDS011;62197;51.632;13.700;2023-07-31T03:44:07;3.40;;;1.85;;
73859;SDS011;62197;51.632;13.700;2023-07-31T03:46:33;5.85;;;1.90;;
73859;SDS011;62197;51.632;13.700;2023-07-31T03:48:59;7.07;;;2.15;;
73859;SDS011;62197;51.632;13.700;2023-07-31T03:51:24;6.88;;;2.00;;
73859;SDS011;62197;51.632;13.700;2023-07-31T03:53:50;6.32;;;2.22;;
73859;SDS011;62197;51.632;13.700;2023-07-31T03:56:15;4.97;;;1.60;;
73859;SDS011;62197;51.632;13.700;2023-07-31T03:58:40;5.00;;;1.80;;
73859;SDS011;62197;51.632;13.700;2023-07-31T04:01:06;6.65;;;1.70;;
73859;SDS011;62197;51.632;13.700;2023-07-31T04:03:31;3.67;;;1.60;;
73859;SDS011;62197;51.632;13.700;2023-07-31T04:05:56;2.20;;;1.55;;
73859;SDS011;62197;51.632;13.700;2023-07-31T04:08:22;4.60;;;1.88;;
73859;SDS011;62197;51.632;13.700;2023-07-31T04:10:47;4.10;;;1.60;;
73859;SDS011;62197;51.632;13.700;2023-07-31T04:13:13;4.18;;;1.98;;
73859;SDS011;62197;51.632;13.700;2023-07-31T04:15:39;2.03;;;1.60;;
73859;SDS011;62197;51.632;13.700;2023-07-31T04:18:04;4.75;;;2.03;;
73859;SDS011;62197;51.632;13.700;2023-07-31T04:20:30;5.18;;;1.92;;
73859;SDS011;62197;51.632;13.700;2023-07-31T04:22:55;5.10;;;2.28;;
73859;SDS011;62197;51.632;13.700;2023-07-31T04:25:20;7.20;;;1.80;;
73859;SDS011;62197;51.632;13.700;2023-07-31T04:27:46;5.43;;;2.22;;
73859;SDS011;62197;51.632;13.700;2023-07-31T04:30:11;5.32;;;2.03;;
73859;SDS011;62197;51.632;13.700;2023-07-31T04:32:36;4.78;;;2.08;;
73859;SDS011;62197;51.632;13.700;2023-07-31T04:35:02;7.63;;;2.28;;
73859;SDS011;62197;51.632;13.700;2023-07-31T04:37:28;5.32;;;2.25;;
73859;SDS011;62197;51.632;13.700;2023-07-31T04:39:53;6.38;;;2.50;;
73859;SDS011;62197;51.632;13.700;2023-07-31T04:42:18;5.78;;;2.50;;
73859;SDS011;62197;51.632;13.700;2023-07-31T04:44:43;5.88;;;2.60;;
73859;SDS011;62197;51.632;13.700;2023-07-31T04:47:09;6.13;;;2.53;;
73859;SDS011;62197;51.632;13.700;2023-07-31T04:49:34;5.43;;;1.90;;
73859;SDS011;62197;51.632;13.700;2023-07-31T04:52:00;4.82;;;1.92;;
73859;SDS011;62197;51.632;13.700;2023-07-31T04:54:25;8.45;;;2.60;;
73859;SDS011;62197;51.632;13.700;2023-07-31T04:56:50;6.25;;;2.78;;
73859;SDS011;62197;51.632;13.700;2023-07-31T04:59:17;3.95;;;2.05;;
73859;SDS011;62197;51.632;13.700;2023-07-31T05:01:42;5.45;;;2.20;;
73859;SDS011;62197;51.632;13.700;2023-07-31T05:04:08;6.82;;;1.90;;
73859;SDS011;62197;51.632;13.700;2023-07-31T05:06:33;6.18;;;2.00;;
73859;SDS011;62197;51.632;13.700;2023-07-31T05:08:58;5.47;;;2.20;;
73859;SDS011;62197;51.632;13.700;2023-07-31T05:11:24;7.88;;;2.10;;
73859;SDS011;62197;51.632;13.700;2023-07-31T05:13:49;6.78;;;2.10;;
73859;SDS011;62197;51.632;13.700;2023-07-31T05:16:14;4.20;;;1.85;;
73859;SDS011;62197;51.632;13.700;2023-07-31T05:18:40;3.17;;;2.17;;
73859;SDS011;62197;51.632;13.700;2023-07-31T05:21:05;6.22;;;2.35;;
73859;SDS011;62197;51.632;13.700;2023-07-31T05:23:30;6.60;;;2.08;;
73859;SDS011;62197;51.632;13.700;2023-07-31T05:26:02;6.60;;;2.08;;
73859;SDS011;62197;51.632;13.700;2023-07-31T05:28:28;6.07;;;1.90;;
73859;SDS011;62197;51.632;13.700;2023-07-31T05:30:58;3.85;;;2.10;;
73859;SDS011;62197;51.632;13.700;2023-07-31T05:33:27;4.13;;;1.83;;
73859;SDS011;62197;51.632;13.700;2023-07-31T05:35:52;5.93;;;1.63;;
73859;SDS011;62197;51.632;13.700;2023-07-31T05:38:17;5.90;;;1.60;;
73859;SDS011;62197;51.632;13.700;2023-07-31T05:40:43;3.42;;;2.00;;
73859;SDS011;62197;51.632;13.700;2023-07-31T05:43:08;4.65;;;2.10;;
73859;SDS011;62197;51.632;13.700;2023-07-31T05:45:34;9.25;;;2.17;;
73859;SDS011;62197;51.632;13.700;2023-07-31T05:47:59;3.35;;;1.52;;
73859;SDS011;62197;51.632;13.700;2023-07-31T05:50:25;5.82;;;2.00;;
73859;SDS011;62197;51.632;13.700;2023-07-31T05:52:50;5.75;;;1.70;;
73859;SDS011;62197;51.632;13.700;2023-07-31T05:55:16;3.85;;;1.80;;
73859;SDS011;62197;51.632;13.700;2023-07-31T05:57:42;2.83;;;1.70;;
73859;SDS011;62197;51.632;13.700;2023-07-31T06:00:07;3.13;;;1.75;;
73859;SDS011;62197;51.632;13.700;2023-07-31T06:02:33;5.82;;;1.70;;
73859;SDS011;62197;51.632;13.700;2023-07-31T06:05:01;5.57;;;1.80;;
73859;SDS011;62197;51.632;13.700;2023-07-31T06:07:27;6.15;;;2.00;;
73859;SDS011;62197;51.632;13.700;2023-07-31T06:09:52;4.22;;;1.55;;
73859;SDS011;62197;51.632;13.700;2023-07-31T06:12:19;4.15;;;2.08;;
73859;SDS011;62197;51.632;13.700;2023-07-31T06:14:45;4.28;;;1.58;;
73859;SDS011;62197;51.632;13.700;2023-07-31T06:17:10;5.80;;;2.22;;
73859;SDS011;62197;51.632;13.700;2023-07-31T06:19:36;5.60;;;2.15;;
73859;SDS011;62197;51.632;13.700;2023-07-31T06:22:01;6.00;;;1.85;;
73859;SDS011;62197;51.632;13.700;2023-07-31T06:24:27;3.65;;;2.10;;
73859;SDS011;62197;51.632;13.700;2023-07-31T06:26:53;6.88;;;2.75;;
73859;SDS011;62197;51.632;13.700;2023-07-31T06:29:18;4.40;;;1.98;;
73859;SDS011;62197;51.632;13.700;2023-07-31T06:31:44;6.00;;;2.60;;
73859;SDS011;62197;51.632;13.700;2023-07-31T06:34:09;6.90;;;2.28;;
73859;SDS011;62197;51.632;13.700;2023-07-31T06:36:34;7.10;;;2.47;;
73859;SDS011;62197;51.632;13.700;2023-07-31T06:39:00;3.90;;;2.20;;
73859;SDS011;62197;51.632;13.700;2023-07-31T06:41:25;8.80;;;3.40;;
73859;SDS011;62197;51.632;13.700;2023-07-31T06:43:50;5.80;;;2.42;;
73859;SDS011;62197;51.632;13.700;2023-07-31T06:46:16;4.25;;;2.35;;
73859;SDS011;62197;51.632;13.700;2023-07-31T06:48:41;6.05;;;2.70;;
73859;SDS011;62197;51.632;13.700;2023-07-31T06:51:06;6.13;;;2.80;;
73859;SDS011;62197;51.632;13.700;2023-07-31T06:53:32;6.57;;;3.00;;
73859;SDS011;62197;51.632;13.700;2023-07-31T06:55:57;5.40;;;2.58;;
73859;SDS011;62197;51.632;13.700;2023-07-31T06:58:22;4.30;;;2.60;;
73859;SDS011;62197;51.632;13.700;2023-07-31T07:00:48;8.32;;;2.92;;
73859;SDS011;62197;51.632;13.700;2023-07-31T07:03:14;5.53;;;3.00;;
73859;SDS011;62197;51.632;13.700;2023-07-31T07:05:41;8.70;;;2.60;;
73859;SDS011;62197;51.632;13.700;2023-07-31T07:08:06;3.95;;;1.92;;
73859;SDS011;62197;51.632;13.700;2023-07-31T07:10:32;7.93;;;2.97;;
73859;SDS011;62197;51.632;13.700;2023-07-31T07:12:57;8.77;;;4.50;;
73859;SDS011;62197;51.632;13.700;2023-07-31T07:15:23;4.75;;;2.15;;
73859;SDS011;62197;51.632;13.700;2023-07-31T07:17:48;3.85;;;2.63;;
73859;SDS011;62197;51.632;13.700;2023-07-31T07:20:13;6.20;;;2.75;;
73859;SDS011;62197;51.632;13.700;2023-07-31T07:22:38;6.40;;;2.75;;
73859;SDS011;62197;51.632;13.700;2023-07-31T07:25:05;4.95;;;2.42;;
73859;SDS011;62197;51.632;13.700;2023-07-31T07:27:32;5.40;;;2.75;;
73859;SDS011;62197;51.632;13.700;2023-07-31T07:29:57;7.53;;;2.80;;
73859;SDS011;62197;51.632;13.700;2023-07-31T07:32:22;9.10;;;2.92;;
73859;SDS011;62197;51.632;13.700;2023-07-31T07:34:48;4.50;;;2.35;;
73859;SDS011;62197;51.632;13.700;2023-07-31T07:37:14;6.85;;;2.83;;
73859;SDS011;62197;51.632;13.700;2023-07-31T07:39:39;7.95;;;2.83;;
73859;SDS011;62197;51.632;13.700;2023-07-31T07:42:04;5.72;;;2.78;;
73859;SDS011;62197;51.632;13.700;2023-07-31T07:44:30;4.40;;;2.85;;
73859;SDS011;62197;51.632;13.700;2023-07-31T07:46:55;6.20;;;1.80;;
73859;SDS011;62197;51.632;13.700;2023-07-31T07:49:20;4.95;;;2.92;;
73859;SDS011;62197;51.632;13.700;2023-07-31T07:51:47;7.25;;;2.70;;
73859;SDS011;62197;51.632;13.700;2023-07-31T07:54:13;6.10;;;2.33;;
73859;SDS011;62197;51.632;13.700;2023-07-31T07:56:38;4.57;;;2.45;;
73859;SDS011;62197;51.632;13.700;2023-07-31T07:59:04;7.38;;;2.45;;
73859;SDS011;62197;51.632;13.700;2023-07-31T08:01:29;4.22;;;2.35;;
73859;SDS011;62197;51.632;13.700;2023-07-31T08:03:55;7.18;;;2.13;;
73859;SDS011;62197;51.632;13.700;2023-07-31T08:06:20;6.75;;;2.53;;
73859;SDS011;62197;51.632;13.700;2023-07-31T08:08:46;4.63;;;2.08;;
73859;SDS011;62197;51.632;13.700;2023-07-31T08:11:11;6.75;;;2.97;;
73859;SDS011;62197;51.632;13.700;2023-07-31T08:13:36;4.18;;;2.17;;
73859;SDS011;62197;51.632;13.700;2023-07-31T08:16:03;5.43;;;2.50;;
73859;SDS011;62197;51.632;13.700;2023-07-31T08:18:28;3.00;;;1.77;;
73859;SDS011;62197;51.632;13.700;2023-07-31T08:20:55;6.03;;;2.60;;
73859;SDS011;62197;51.632;13.700;2023-07-31T08:23:20;3.45;;;2.00;;
73859;SDS011;62197;51.632;13.700;2023-07-31T08:25:46;6.22;;;1.95;;
73859;SDS011;62197;51.632;13.700;2023-07-31T08:28:11;3.38;;;2.05;;
73859;SDS011;62197;51.632;13.700;2023-07-31T08:30:37;6.95;;;2.97;;
73859;SDS011;62197;51.632;13.700;2023-07-31T08:33:02;6.38;;;2.55;;
73859;SDS011;62197;51.632;13.700;2023-07-31T08:35:27;5.60;;;2.40;;
73859;SDS011;62197;51.632;13.700;2023-07-31T08:37:53;4.93;;;2.10;;
73859;SDS011;62197;51.632;13.700;2023-07-31T08:40:18;4.22;;;1.90;;
73859;SDS011;62197;51.632;13.700;2023-07-31T08:42:44;3.08;;;1.30;;
73859;SDS011;62197;51.632;13.700;2023-07-31T08:45:12;5.55;;;1.92;;
73859;SDS011;62197;51.632;13.700;2023-07-31T08:47:39;9.38;;;2.38;;
73859;SDS011;62197;51.632;13.700;2023-07-31T08:50:04;2.67;;;1.95;;
73859;SDS011;62197;51.632;13.700;2023-07-31T08:52:31;4.53;;;1.85;;
73859;SDS011;62197;51.632;13.700;2023-07-31T08:54:56;4.20;;;1.65;;
73859;SDS011;62197;51.632;13.700;2023-07-31T08:57:21;2.85;;;1.63;;
73859;SDS011;62197;51.632;13.700;2023-07-31T08:59:49;4.45;;;2.33;;
73859;SDS011;62197;51.632;13.700;2023-07-31T09:02:14;6.70;;;2.22;;
73859;SDS011;62197;51.632;13.700;2023-07-31T09:04:40;3.95;;;1.88;;
73859;SDS011;62197;51.632;13.700;2023-07-31T09:07:05;3.45;;;1.75;;
73859;SDS011;62197;51.632;13.700;2023-07-31T09:09:31;5.05;;;1.20;;
73859;SDS011;62197;51.632;13.700;2023-07-31T09:11:57;5.70;;;1.77;;
73859;SDS011;62197;51.632;13.700;2023-07-31T09:14:24;3.40;;;1.95;;
73859;SDS011;62197;51.632;13.700;2023-07-31T09:16:54;7.25;;;2.10;;
73859;SDS011;62197;51.632;13.700;2023-07-31T09:19:32;7.72;;;1.77;;
73859;SDS011;62197;51.632;13.700;2023-07-31T09:21:59;4.60;;;1.33;;
73859;SDS011;62197;51.632;13.700;2023-07-31T09:24:25;3.85;;;1.98;;
73859;SDS011;62197;51.632;13.700;2023-07-31T09:26:53;3.25;;;1.83;;
73859;SDS011;62197;51.632;13.700;2023-07-31T09:29:23;3.22;;;1.65;;
73859;SDS011;62197;51.632;13.700;2023-07-31T09:31:50;4.25;;;1.63;;
73859;SDS011;62197;51.632;13.700;2023-07-31T09:34:15;2.35;;;1.40;;
73859;SDS011;62197;51.632;13.700;2023-07-31T09:36:44;3.97;;;1.80;;
73859;SDS011;62197;51.632;13.700;2023-07-31T09:39:14;4.50;;;1.67;;
73859;SDS011;62197;51.632;13.700;2023-07-31T09:41:42;5.22;;;1.90;;
73859;SDS011;62197;51.632;13.700;2023-07-31T09:44:09;3.35;;;1.20;;
73859;SDS011;62197;51.632;13.700;2023-07-31T09:46:35;4.50;;;2.05;;
73859;SDS011;62197;51.632;13.700;2023-07-31T09:49:03;6.22;;;1.90;;
73859;SDS011;62197;51.632;13.700;2023-07-31T09:51:32;2.72;;;1.42;;
73859;SDS011;62197;51.632;13.700;2023-07-31T09:54:03;2.90;;;1.67;;
73859;SDS011;62197;51.632;13.700;2023-07-31T09:56:28;3.45;;;1.70;;
73859;SDS011;62197;51.632;13.700;2023-07-31T09:58:54;6.55;;;1.70;;
73859;SDS011;62197;51.632;13.700;2023-07-31T10:01:21;2.35;;;1.50;;
73859;SDS011;62197;51.632;13.700;2023-07-31T10:03:46;4.95;;;2.00;;
73859;SDS011;62197;51.632;13.700;2023-07-31T10:06:12;4.35;;;1.70;;
73859;SDS011;62197;51.632;13.700;2023-07-31T10:08:40;5.03;;;1.80;;
73859;SDS011;62197;51.632;13.700;2023-07-31T10:11:08;4.80;;;1.75;;
73859;SDS011;62197;51.632;13.700;2023-07-31T10:13:34;5.85;;;1.95;;
73859;SDS011;62197;51.632;13.700;2023-07-31T10:16:00;4.40;;;1.80;;
73859;SDS011;62197;51.632;13.700;2023-07-31T10:18:26;6.53;;;1.92;;
73859;SDS011;62197;51.632;13.700;2023-07-31T10:20:52;2.38;;;1.50;;
73859;SDS011;62197;51.632;13.700;2023-07-31T10:23:18;3.38;;;1.10;;
73859;SDS011;62197;51.632;13.700;2023-07-31T10:25:43;3.53;;;1.40;;
73859;SDS011;62197;51.632;13.700;2023-07-31T10:28:09;5.70;;;1.67;;
73859;SDS011;62197;51.632;13.700;2023-07-31T10:30:36;3.17;;;1.52;;
73859;SDS011;62197;51.632;13.700;2023-07-31T10:33:03;4.07;;;1.58;;
73859;SDS011;62197;51.632;13.700;2023-07-31T10:35:30;5.68;;;2.15;;
73859;SDS011;62197;51.632;13.700;2023-07-31T10:37:55;3.60;;;1.70;;
73859;SDS011;62197;51.632;13.700;2023-07-31T10:40:24;4.35;;;2.00;;
73859;SDS011;62197;51.632;13.700;2023-07-31T10:42:52;4.30;;;1.65;;
73859;SDS011;62197;51.632;13.700;2023-07-31T10:45:38;3.63;;;2.13;;
73859;SDS011;62197;51.632;13.700;2023-07-31T10:50:32;4.22;;;1.83;;
73859;SDS011;62197;51.632;13.700;2023-07-31T10:53:01;3.30;;;1.45;;
73859;SDS011;62197;51.632;13.700;2023-07-31T10:55:28;4.43;;;1.73;;
73859;SDS011;62197;51.632;13.700;2023-07-31T10:57:58;6.88;;;2.15;;
73859;SDS011;62197;51.632;13.700;2023-07-31T11:00:31;2.55;;;1.60;;
73859;SDS011;62197;51.632;13.700;2023-07-31T11:05:40;4.97;;;2.15;;
73859;SDS011;62197;51.632;13.700;2023-07-31T11:10:41;3.35;;;1.70;;
73859;SDS011;62197;51.632;13.700;2023-07-31T11:13:08;4.53;;;1.65;;
73859;SDS011;62197;51.632;13.700;2023-07-31T11:15:33;3.55;;;1.60;;
73859;SDS011;62197;51.632;13.700;2023-07-31T11:17:59;5.13;;;1.90;;
73859;SDS011;62197;51.632;13.700;2023-07-31T11:20:28;5.38;;;1.73;;
73859;SDS011;62197;51.632;13.700;2023-07-31T11:22:54;3.53;;;1.50;;
73859;SDS011;62197;51.632;13.700;2023-07-31T11:25:20;3.58;;;1.83;;
73859;SDS011;62197;51.632;13.700;2023-07-31T11:27:47;6.30;;;2.45;;
73859;SDS011;62197;51.632;13.700;2023-07-31T11:30:15;4.63;;;2.13;;
73859;SDS011;62197;51.632;13.700;2023-07-31T11:32:43;4.60;;;1.52;;
73859;SDS011;62197;51.632;13.700;2023-07-31T11:35:12;2.67;;;1.55;;
73859;SDS011;62197;51.632;13.700;2023-07-31T11:37:41;3.05;;;1.48;;
73859;SDS011;62197;51.632;13.700;2023-07-31T11:40:07;3.70;;;1.73;;
73859;SDS011;62197;51.632;13.700;2023-07-31T11:42:34;6.63;;;2.08;;
73859;SDS011;62197;51.632;13.700;2023-07-31T11:45:02;4.00;;;2.05;;
73859;SDS011;62197;51.632;13.700;2023-07-31T11:47:28;4.50;;;1.92;;
73859;SDS011;62197;51.632;13.700;2023-07-31T11:49:53;2.65;;;1.42;;
73859;SDS011;62197;51.632;13.700;2023-07-31T11:52:18;4.43;;;1.70;;
73859;SDS011;62197;51.632;13.700;2023-07-31T11:54:48;3.97;;;1.60;;
73859;SDS011;62197;51.632;13.700;2023-07-31T11:57:14;6.30;;;1.98;;
73859;SDS011;62197;51.632;13.700;2023-07-31T11:59:40;6.65;;;1.80;;
73859;SDS011;62197;51.632;13.700;2023-07-31T12:02:05;2.75;;;1.60;;
73859;SDS011;62197;51.632;13.700;2023-07-31T12:04:30;3.63;;;2.05;;
73859;SDS011;62197;51.632;13.700;2023-07-31T12:06:56;3.50;;;1.77;;
73859;SDS011;62197;51.632;13.700;2023-07-31T12:09:24;5.22;;;2.05;;
73859;SDS011;62197;51.632;13.700;2023-07-31T12:11:51;3.90;;;1.85;;
73859;SDS011;62197;51.632;13.700;2023-07-31T12:14:26;4.82;;;1.63;;
73859;SDS011;62197;51.632;13.700;2023-07-31T12:16:56;5.00;;;1.73;;
73859;SDS011;62197;51.632;13.700;2023-07-31T12:19:25;4.85;;;1.45;;
73859;SDS011;62197;51.632;13.700;2023-07-31T12:21:53;5.75;;;2.15;;
73859;SDS011;62197;51.632;13.700;2023-07-31T12:24:18;5.13;;;1.58;;
73859;SDS011;62197;51.632;13.700;2023-07-31T12:26:45;3.03;;;1.60;;
73859;SDS011;62197;51.632;13.700;2023-07-31T12:29:11;3.58;;;1.58;;
73859;SDS011;62197;51.632;13.700;2023-07-31T12:31:37;2.80;;;1.80;;
73859;SDS011;62197;51.632;13.700;2023-07-31T12:34:14;4.68;;;1.63;;
73859;SDS011;62197;51.632;13.700;2023-07-31T12:36:40;3.63;;;1.48;;
73859;SDS011;62197;51.632;13.700;2023-07-31T12:39:07;2.42;;;1.73;;
73859;SDS011;62197;51.632;13.700;2023-07-31T12:41:32;3.40;;;1.70;;
73859;SDS011;62197;51.632;13.700;2023-07-31T12:43:58;4.53;;;1.40;;
73859;SDS011;62197;51.632;13.700;2023-07-31T12:46:23;2.75;;;1.48;;
73859;SDS011;62197;51.632;13.700;2023-07-31T12:48:48;3.60;;;1.65;;
73859;SDS011;62197;51.632;13.700;2023-07-31T12:51:14;2.90;;;1.50;;
73859;SDS011;62197;51.632;13.700;2023-07-31T12:53:39;3.25;;;1.50;;
73859;SDS011;62197;51.632;13.700;2023-07-31T12:56:05;4.63;;;2.00;;
73859;SDS011;62197;51.632;13.700;2023-07-31T12:58:30;5.57;;;1.60;;
73859;SDS011;62197;51.632;13.700;2023-07-31T13:00:55;3.75;;;1.77;;
73859;SDS011;62197;51.632;13.700;2023-07-31T13:03:21;3.92;;;1.90;;
73859;SDS011;62197;51.632;13.700;2023-07-31T13:05:46;2.75;;;1.67;;
73859;SDS011;62197;51.632;13.700;2023-07-31T13:08:12;4.13;;;1.65;;
73859;SDS011;62197;51.632;13.700;2023-07-31T13:10:37;3.70;;;1.58;;
73859;SDS011;62197;51.632;13.700;2023-07-31T13:13:02;5.07;;;1.67;;
73859;SDS011;62197;51.632;13.700;2023-07-31T13:15:28;3.80;;;2.00;;
73859;SDS011;62197;51.632;13.700;2023-07-31T13:17:53;4.47;;;1.83;;
73859;SDS011;62197;51.632;13.700;2023-07-31T13:20:18;8.32;;;1.80;;
73859;SDS011;62197;51.632;13.700;2023-07-31T13:22:44;3.45;;;1.65;;
73859;SDS011;62197;51.632;13.700;2023-07-31T13:25:09;3.33;;;1.75;;
73859;SDS011;62197;51.632;13.700;2023-07-31T13:27:35;5.82;;;1.95;;
73859;SDS011;62197;51.632;13.700;2023-07-31T13:30:00;3.75;;;1.77;;
73859;SDS011;62197;51.632;13.700;2023-07-31T13:32:26;5.53;;;2.33;;
73859;SDS011;62197;51.632;13.700;2023-07-31T13:34:51;4.20;;;1.73;;
73859;SDS011;62197;51.632;13.700;2023-07-31T13:37:17;3.38;;;1.73;;
73859;SDS011;62197;51.632;13.700;2023-07-31T13:39:42;4.22;;;1.85;;
73859;SDS011;62197;51.632;13.700;2023-07-31T13:42:08;2.45;;;1.40;;
73859;SDS011;62197;51.632;13.700;2023-07-31T13:44:36;3.45;;;1.77;;
73859;SDS011;62197;51.632;13.700;2023-07-31T13:47:02;4.47;;;1.60;;
73859;SDS011;62197;51.632;13.700;2023-07-31T13:49:28;3.45;;;1.50;;
73859;SDS011;62197;51.632;13.700;2023-07-31T13:51:54;4.00;;;2.28;;
73859;SDS011;62197;51.632;13.700;2023-07-31T13:54:20;4.63;;;1.58;;
73859;SDS011;62197;51.632;13.700;2023-07-31T13:56:45;2.75;;;1.48;;
73859;SDS011;62197;51.632;13.700;2023-07-31T13:59:11;4.47;;;2.03;;
73859;SDS011;62197;51.632;13.700;2023-07-31T14:01:36;4.00;;;1.75;;
73859;SDS011;62197;51.632;13.700;2023-07-31T14:04:01;4.88;;;2.15;;
73859;SDS011;62197;51.632;13.700;2023-07-31T14:06:27;2.63;;;1.45;;
73859;SDS011;62197;51.632;13.700;2023-07-31T14:08:52;3.85;;;1.70;;
73859;SDS011;62197;51.632;13.700;2023-07-31T14:11:18;3.97;;;1.75;;
73859;SDS011;62197;51.632;13.700;2023-07-31T14:13:43;2.92;;;1.77;;
73859;SDS011;62197;51.632;13.700;2023-07-31T14:16:09;6.97;;;1.73;;
73859;SDS011;62197;51.632;13.700;2023-07-31T14:18:34;3.65;;;2.33;;
73859;SDS011;62197;51.632;13.700;2023-07-31T14:20:59;3.50;;;1.48;;
73859;SDS011;62197;51.632;13.700;2023-07-31T14:23:25;4.30;;;1.75;;
73859;SDS011;62197;51.632;13.700;2023-07-31T14:25:50;5.18;;;1.92;;
73859;SDS011;62197;51.632;13.700;2023-07-31T14:28:15;6.28;;;2.25;;
73859;SDS011;62197;51.632;13.700;2023-07-31T14:30:41;3.17;;;1.70;;
73859;SDS011;62197;51.632;13.700;2023-07-31T14:33:06;3.15;;;1.75;;
73859;SDS011;62197;51.632;13.700;2023-07-31T14:35:31;3.72;;;1.92;;
73859;SDS011;62197;51.632;13.700;2023-07-31T14:37:57;3.70;;;1.83;;
73859;SDS011;62197;51.632;13.700;2023-07-31T14:40:22;3.83;;;1.70;;
73859;SDS011;62197;51.632;13.700;2023-07-31T14:42:47;3.40;;;1.63;;